Airfield :
LOGIN :

Register | Disclaimer

   EN    FR    IT 

 










Legend :    VFR   Marginal VFR   IFR   Intensive IFR   Very Intensive IFR
Visi :
Ceiling :
>= 8 km
>= 3000ft
5 to 8 km
1000 to 3000 ft
1500m to 5 km
500 to 1000 ft
800 to 1500m
200 to 500 ft
< 800m
< 200 ft
Symbols :   Thunderstorms  Fog  Heavy snow  Heavy precipitations  Wind > 20 kt
SIGMETs :     Misc.  Thunderstorms  Icing  Turbulence  Mountain Waves  Volcanic Ashes







- Airport Elevation : 1276 ft
- IATA code : STR


EDDS - Stuttgart

CURRENT METAR :
  • 262350Z 29009KT 9999 SHRA FEW007 SCT040CB BKN063 19/18 Q1012

EXPIRED METARs :
  • 262320Z 26009KT 9000 SHRA FEW007 SCT040CB BKN060 18/17 Q1012 RETSRA
  • 262250Z 25012KT 210V290 4300 +TSRA FEW012 BKN040CB 19/17 Q1013
  • 262220Z 22006KT 160V310 9999 -SHRA VCTS SCT040CB BKN068 23/15 Q1012
  • 262150Z 31003KT 9999 FEW040CB SCT075 BKN087 23/15 Q1011
  • 262120Z VRB02KT 9999 FEW040CB BKN089 BKN200 23/14 Q1011

TAF COR TAF EDDS
Valid from the 27 at 00:00 until the 28 at 00:00 UTC


262345Z 2700/2724 30005KT CAVOK
TEMPO 2700/2710 SHRA SCT040CB
PROB30
TEMPO 2700/2708 TSRA
BECMG 2704/2707 06005KT
PROB40
TEMPO 2713/2724 SHRA SCT045CB
PROB30
TEMPO 2713/2724 21015G25KT TSRA BKN040CB
No reported NOTAMs for that airfield.
1 SIGMET reported for the Langen FIR (EDGG) :
 
Embedded thunderstorms
EDGG SIGMET 2 VALID 262200/270100 EDZF
EDGG LANGEN FIR EMBD TS FCST SW OF LINE N4930 E00630 - N4845 E00945 TOP FL390 MOV NE NC=



MET'MAP, your aeronautical weather chart ! - Copyright ORBIFLY December 2007 - Disclaimer

ORBIFLY MET'MAP TEAM :

Programming & Development : Alexandra Zaïnal
Concept & Development : Baudouin d'Aumeries
Co-Development & Prog : Marc-Olivier Méhu
Technical & hardware support : Manuel Goepfert

Contact : metmap@orbifly.com




SOURCES & CREDITS :

   NOAA